createdAt,value
2023-03-17T00:04:24.210Z,2.90
2023-03-17T00:14:32.154Z,2.55
2023-03-17T00:19:36.590Z,3.10
2023-03-17T00:24:41.242Z,3.25
2023-03-17T00:29:44.455Z,5.05
2023-03-17T00:34:47.878Z,3.40
2023-03-17T00:39:52.494Z,4.00
2023-03-17T00:44:55.725Z,5.82
2023-03-17T00:49:58.947Z,4.97
2023-03-17T00:55:03.684Z,7.97
2023-03-17T01:00:14.818Z,5.95
2023-03-17T01:05:18.356Z,10.77
2023-03-17T01:10:25.876Z,5.65
2023-03-17T01:15:31.673Z,4.05
2023-03-17T01:20:35.886Z,3.60
2023-03-17T01:25:42.849Z,14.93
2023-03-17T01:30:47.089Z,3.50
2023-03-17T01:35:52.137Z,3.10
2023-03-17T01:40:56.879Z,6.57
2023-03-17T01:46:29.335Z,7.80
2023-03-17T01:51:35.957Z,3.00
2023-03-17T01:56:43.376Z,2.50
2023-03-17T02:01:50.095Z,2.90
2023-03-17T02:06:58.488Z,2.53
2023-03-17T02:12:05.364Z,2.70
2023-03-17T02:17:08.865Z,2.38
2023-03-17T02:22:13.889Z,2.50
2023-03-17T02:32:22.777Z,2.05
2023-03-17T02:37:27.306Z,1.80
2023-03-17T02:42:30.746Z,1.42
2023-03-17T02:47:33.987Z,1.42
2023-03-17T02:52:38.511Z,1.50
2023-03-17T02:57:42.022Z,1.23
2023-03-17T03:02:45.167Z,0.82
2023-03-17T03:07:49.698Z,1.38
2023-03-17T03:12:52.988Z,1.30
2023-03-17T03:17:56.116Z,1.45
2023-03-17T03:23:00.702Z,1.48
2023-03-17T03:28:03.855Z,1.20
2023-03-17T03:33:07.060Z,0.90
2023-03-17T03:38:12.585Z,1.50
2023-03-17T03:43:23.380Z,1.33
2023-03-17T03:48:27.075Z,1.65
2023-03-17T03:53:32.083Z,1.98
2023-03-17T04:03:38.212Z,1.55
2023-03-17T04:08:42.757Z,2.22
2023-03-17T04:13:45.957Z,1.85
2023-03-17T04:18:49.151Z,2.35
2023-03-17T04:23:53.784Z,1.70
2023-03-17T04:28:56.941Z,1.58
2023-03-17T04:34:00.117Z,2.15
2023-03-17T04:39:04.819Z,1.67
2023-03-17T04:44:08.867Z,2.33
2023-03-17T04:49:12.155Z,1.60
2023-03-17T04:54:16.706Z,2.92
2023-03-17T04:59:19.863Z,1.70
2023-03-17T05:04:31.062Z,1.70
2023-03-17T05:09:36.474Z,1.70
2023-03-17T05:14:39.782Z,1.65
2023-03-17T05:19:43.268Z,1.45
2023-03-17T05:24:48.029Z,1.35
2023-03-17T05:29:51.128Z,2.25
2023-03-17T05:34:54.565Z,2.78
2023-03-17T05:39:59.589Z,2.65
2023-03-17T05:50:08.171Z,1.80
2023-03-17T05:55:13.254Z,3.60
2023-03-17T06:05:20.226Z,13.20
2023-03-17T06:10:25.173Z,4.75
2023-03-17T06:15:29.249Z,2.58
2023-03-17T06:20:32.887Z,2.73
2023-03-17T06:25:37.676Z,2.47
2023-03-17T06:30:41.073Z,1.88
2023-03-17T06:35:44.303Z,4.18
2023-03-17T06:40:49.072Z,2.40
2023-03-17T06:45:52.946Z,4.82
2023-03-17T06:50:56.523Z,2.28
2023-03-17T06:56:01.217Z,2.70
2023-03-17T07:01:04.455Z,2.13
2023-03-17T07:06:08.879Z,6.72
2023-03-17T07:11:13.507Z,2.40
2023-03-17T07:16:19.818Z,2.35
2023-03-17T07:21:23.050Z,2.30
2023-03-17T07:26:27.816Z,3.38
2023-03-17T07:31:31.143Z,2.42
2023-03-17T07:36:34.453Z,2.65
2023-03-17T07:41:39.076Z,2.10
2023-03-17T07:46:42.784Z,2.08
2023-03-17T07:51:45.982Z,2.08
2023-03-17T07:56:50.651Z,3.45
2023-03-17T08:01:53.931Z,2.80
2023-03-17T08:06:57.408Z,3.75
2023-03-17T08:12:02.210Z,2.38
2023-03-17T08:17:05.496Z,2.83
2023-03-17T08:22:09.149Z,3.22
2023-03-17T08:27:14.313Z,2.08
2023-03-17T08:32:17.654Z,1.73
2023-03-17T08:37:20.867Z,2.30
2023-03-17T08:42:25.530Z,1.65
2023-03-17T08:47:28.783Z,1.75
2023-03-17T08:52:32.653Z,2.13
2023-03-17T08:57:37.513Z,1.85
2023-03-17T09:02:43.306Z,2.78
2023-03-17T09:07:46.809Z,2.67
2023-03-17T09:12:51.843Z,2.20
2023-03-17T09:17:55.254Z,2.85
2023-03-17T09:22:58.537Z,2.30
2023-03-17T09:28:03.891Z,2.93
2023-03-17T09:33:07.145Z,2.50
2023-03-17T09:38:11.414Z,2.63
2023-03-17T09:43:27.597Z,2.25
2023-03-17T09:48:42.055Z,2.50
2023-03-17T09:53:52.980Z,2.95
2023-03-17T09:59:01.339Z,3.35
2023-03-17T10:04:04.844Z,2.60
2023-03-17T10:09:19.941Z,2.67
2023-03-17T10:14:39.901Z,1.80
2023-03-17T10:19:47.435Z,2.35
2023-03-17T10:24:54.000Z,2.00
2023-03-17T10:29:58.617Z,2.30
2023-03-17T10:35:02.752Z,2.35
2023-03-17T10:40:10.605Z,3.30
2023-03-17T10:45:18.095Z,2.42
2023-03-17T10:50:24.875Z,2.33
2023-03-17T10:55:32.751Z,2.90
2023-03-17T11:00:39.321Z,2.80
2023-03-17T11:05:55.321Z,2.97
2023-03-17T11:10:58.548Z,2.70
2023-03-17T11:16:11.931Z,2.78
2023-03-17T11:21:21.712Z,2.78
2023-03-17T11:26:40.270Z,1.55
2023-03-17T11:31:53.148Z,2.33
2023-03-17T11:37:07.063Z,1.92
2023-03-17T11:42:17.335Z,2.83
2023-03-17T11:47:43.085Z,2.40
2023-03-17T11:53:00.682Z,2.80
2023-03-17T11:58:09.720Z,2.58
2023-03-17T12:03:22.380Z,2.72
2023-03-17T12:08:31.525Z,2.42
2023-03-17T12:13:40.372Z,2.65
2023-03-17T12:18:54.737Z,2.30
2023-03-17T12:24:03.353Z,2.63
2023-03-17T12:29:14.285Z,2.28
2023-03-17T12:34:24.364Z,2.22
2023-03-17T12:39:33.882Z,2.60
2023-03-17T12:45:01.303Z,2.25
2023-03-17T12:50:28.693Z,2.50
2023-03-17T12:55:36.335Z,2.88
2023-03-17T13:00:51.044Z,2.50
2023-03-17T13:06:01.027Z,2.13
2023-03-17T13:11:21.339Z,2.22
2023-03-17T13:16:29.947Z,1.70
2023-03-17T13:21:36.534Z,1.40
2023-03-17T13:26:55.445Z,1.45
2023-03-17T13:32:31.991Z,1.48
2023-03-17T13:37:46.436Z,2.03
2023-03-17T13:43:09.717Z,1.95
2023-03-17T13:48:36.485Z,1.60
2023-03-17T13:53:43.230Z,2.05
2023-03-17T13:59:06.553Z,2.30
2023-03-17T14:04:20.983Z,3.08
2023-03-17T14:09:38.769Z,2.30
2023-03-17T14:14:53.823Z,2.40
2023-03-17T14:20:08.323Z,2.10
2023-03-17T14:30:23.434Z,2.58
2023-03-17T14:35:30.829Z,2.10
2023-03-17T14:40:37.090Z,1.45
2023-03-17T14:45:53.714Z,1.30
2023-03-17T14:51:05.321Z,1.20
2023-03-17T14:56:10.637Z,1.23
2023-03-17T15:01:17.914Z,1.52
2023-03-17T15:06:26.167Z,1.38
2023-03-17T15:11:40.131Z,1.90
2023-03-17T15:16:46.993Z,1.93
2023-03-17T15:21:50.757Z,2.50
2023-03-17T15:27:02.837Z,1.73
2023-03-17T15:32:13.059Z,1.85
2023-03-17T15:37:18.535Z,1.65
2023-03-17T15:42:25.783Z,1.67
2023-03-17T15:47:30.781Z,1.40
2023-03-17T15:52:34.533Z,1.40
2023-03-17T15:57:39.084Z,1.48
2023-03-17T16:02:42.976Z,1.30
2023-03-17T16:07:47.041Z,1.67
2023-03-17T16:12:52.402Z,1.50
2023-03-17T16:17:58.483Z,2.13
2023-03-17T16:23:08.584Z,1.88
2023-03-17T16:28:18.274Z,1.30
2023-03-17T16:33:23.942Z,1.42
2023-03-17T16:38:30.046Z,1.50
2023-03-17T16:43:37.963Z,1.40
2023-03-17T16:48:41.162Z,1.92
2023-03-17T16:53:44.614Z,1.63
2023-03-17T16:58:49.739Z,1.98
2023-03-17T17:03:53.175Z,3.03
2023-03-17T17:08:56.346Z,1.50
2023-03-17T17:14:01.022Z,1.80
2023-03-17T17:19:05.048Z,1.55
2023-03-17T17:24:11.778Z,1.87
2023-03-17T17:29:16.358Z,1.60
2023-03-17T17:34:19.487Z,1.80
2023-03-17T17:39:22.595Z,2.17
2023-03-17T17:44:27.301Z,1.70
2023-03-17T17:49:30.481Z,1.70
2023-03-17T17:54:34.788Z,1.50
2023-03-17T17:59:39.429Z,1.80
2023-03-17T18:04:42.689Z,1.58
2023-03-17T18:09:45.909Z,1.70
2023-03-17T18:14:50.490Z,2.60
2023-03-17T18:19:54.049Z,1.88
2023-03-17T18:24:57.215Z,2.13
2023-03-17T18:30:02.036Z,3.78
2023-03-17T18:35:09.480Z,2.78
2023-03-17T18:40:17.271Z,2.60
2023-03-17T18:45:23.926Z,3.40
2023-03-17T18:50:27.561Z,3.40
2023-03-17T18:55:30.766Z,3.00
2023-03-17T19:00:35.568Z,3.30
2023-03-17T19:05:39.823Z,3.10
2023-03-17T19:10:44.308Z,9.90
2023-03-17T19:15:48.950Z,4.43
2023-03-17T19:20:52.746Z,4.13
2023-03-17T19:25:56.061Z,4.00
2023-03-17T19:31:00.825Z,15.38
2023-03-17T19:36:08.755Z,82.45
2023-03-17T19:41:12.174Z,33.50
2023-03-17T19:46:16.823Z,39.40
2023-03-17T19:51:20.155Z,19.88
2023-03-17T19:56:23.756Z,7.63
2023-03-17T20:01:29.418Z,6.00
2023-03-17T20:06:32.712Z,11.68
2023-03-17T20:11:36.283Z,7.68
2023-03-17T20:16:41.560Z,5.28
2023-03-17T20:21:45.022Z,48.40
2023-03-17T20:26:49.685Z,68.97
2023-03-17T20:31:54.340Z,26.42
2023-03-17T20:36:57.598Z,22.23
2023-03-17T20:42:01.780Z,9.88
2023-03-17T20:47:06.527Z,11.13
2023-03-17T20:52:13.679Z,5.72
2023-03-17T20:57:16.968Z,4.93
2023-03-17T21:02:23.452Z,5.60
2023-03-17T21:07:26.598Z,6.70
2023-03-17T21:12:29.942Z,3.70
2023-03-17T21:17:34.868Z,4.43
2023-03-17T21:27:42.197Z,4.13
2023-03-17T21:32:46.967Z,3.67
2023-03-17T21:37:50.776Z,4.28
2023-03-17T21:42:54.451Z,4.40
2023-03-17T21:47:59.076Z,4.03
2023-03-17T21:53:02.346Z,4.35
2023-03-17T21:58:05.588Z,4.50
2023-03-17T22:03:10.415Z,4.25
2023-03-17T22:08:13.731Z,4.57
2023-03-17T22:13:17.129Z,4.05
2023-03-17T22:18:22.174Z,3.83
2023-03-17T22:28:29.333Z,3.88
2023-03-17T22:33:34.476Z,4.00
2023-03-17T22:38:38.041Z,3.40
2023-03-17T22:43:41.925Z,3.90
2023-03-17T22:48:47.454Z,4.00
2023-03-17T22:53:51.443Z,4.53
2023-03-17T22:58:54.975Z,5.65
2023-03-17T23:03:59.738Z,5.95
2023-03-17T23:09:03.173Z,4.40
2023-03-17T23:14:06.448Z,4.78
2023-03-17T23:19:11.007Z,4.93
2023-03-17T23:24:14.457Z,5.18
2023-03-17T23:29:17.826Z,4.75
2023-03-17T23:34:22.634Z,4.90
2023-03-17T23:39:26.016Z,4.35
2023-03-17T23:44:29.284Z,4.07
2023-03-17T23:49:33.907Z,5.20
2023-03-17T23:54:38.920Z,4.45
